Time;durP1;ratioP1;P1;durP2;ratioP2;P2;SDS_P1;SDS_P2;PMS_P1;PMS_P2;Temp;Humidity;BMP_temperature;BMP_pressure;BME280_temperature;BME280_humidity;BME280_pressure;Samples;Min_cycle;Max_cycle;Signal;HPM_P1;HPM_P2
2023/05/15 00:04:10;;;;;;;7.63;3.10;;;;;;;20.41;44.25;101519.28;16107337;19;129642;-38
2023/05/15 00:09:32;;;;;;;5.93;3.35;;;;;;;20.40;44.34;101512.03;16108509;19;129693;-38
2023/05/15 00:14:54;;;;;;;4.78;3.30;;;;;;;20.39;44.12;101513.13;16105767;19;129625;-38
2023/05/15 00:20:16;;;;;;;4.68;3.53;;;;;;;20.38;44.58;101498.38;16106285;19;129647;-39
2023/05/15 00:25:38;;;;;;;4.78;3.03;;;;;;;20.38;44.20;101500.31;16111413;19;129576;-38
2023/05/15 00:31:00;;;;;;;4.72;3.10;;;;;;;20.37;44.43;101493.88;16109512;19;131600;-37
2023/05/15 00:36:23;;;;;;;3.70;2.67;;;;;;;20.36;44.70;101491.38;16119998;19;129730;-40
2023/05/15 00:41:47;;;;;;;4.28;2.88;;;;;;;20.36;44.70;101492.22;16120967;19;129122;-44
2023/05/15 00:47:09;;;;;;;5.15;3.00;;;;;;;20.37;44.36;101470.84;16120950;19;129293;-39
2023/05/15 00:52:32;;;;;;;5.90;2.60;;;;;;;20.36;44.61;101488.59;16122313;19;130428;-38
2023/05/15 00:57:56;;;;;;;4.72;2.70;;;;;;;20.34;44.46;101477.72;16116046;19;130744;-38
2023/05/15 01:03:18;;;;;;;3.08;2.78;;;;;;;20.32;44.64;101468.78;16120749;19;129845;-39
2023/05/15 01:08:48;;;;;;;3.85;2.80;;;;;;;20.33;44.84;101467.69;16122915;19;129007;-41
2023/05/15 01:14:10;;;;;;;5.53;2.90;;;;;;;20.31;44.41;101477.38;16118292;19;130766;-39
2023/05/15 01:19:32;;;;;;;6.03;2.72;;;;;;;20.31;44.98;101474.59;16120688;19;129701;-43
2023/05/15 01:25:25;;;;;;;4.63;2.80;;;;;;;20.29;44.76;101459.03;16119903;19;129429;-43
2023/05/15 01:30:49;;;;;;;3.28;2.70;;;;;;;20.28;44.90;101450.91;16118587;19;134677;-44
2023/05/15 01:36:20;;;;;;;4.03;2.40;;;;;;;20.29;44.79;101453.47;16116651;19;133518;-44
2023/05/15 01:41:59;;;;;;;4.03;2.33;;;;;;;20.29;44.56;101458.16;16119347;19;129430;-46
2023/05/15 01:47:34;;;;;;;4.05;2.65;;;;;;;20.28;44.82;101457.31;16115219;19;130183;-44
2023/05/15 01:52:59;;;;;;;3.05;2.22;;;;;;;20.26;44.81;101455.88;16121647;19;132266;-45
2023/05/15 01:58:24;;;;;;;3.60;2.40;;;;;;;20.25;45.06;101468.91;16112277;19;130235;-39
2023/05/15 02:03:47;;;;;;;3.50;2.53;;;;;;;20.24;44.72;101467.22;16113529;19;129497;-41
2023/05/15 02:09:09;;;;;;;2.88;2.20;;;;;;;20.25;45.17;101463.38;16118829;19;129434;-39
2023/05/15 02:14:35;;;;;;;;;;;;;;;20.20;45.23;101468.78;16113729;19;130598;-40
2023/05/15 02:19:57;;;;;;;4.28;2.60;;;;;;;20.21;45.06;101473.25;16110524;19;131738;-40
2023/05/15 02:25:29;;;;;;;3.67;2.50;;;;;;;20.21;44.89;101473.25;16119024;19;131712;-46
2023/05/15 02:31:00;;;;;;;4.95;4.13;;;;;;;20.21;44.66;101467.72;16114371;19;130442;-42
2023/05/15 02:36:29;;;;;;;7.30;4.10;;;;;;;20.19;44.45;101463.50;16114700;19;130456;-40
2023/05/15 02:41:52;;;;;;;3.95;3.42;;;;;;;20.18;44.68;101473.78;16112011;19;131380;-39
2023/05/15 02:47:15;;;;;;;5.05;4.50;;;;;;;20.17;44.66;101468.44;16109769;19;130654;-39
2023/05/15 02:52:37;;;;;;;6.53;5.22;;;;;;;20.14;44.39;101456.72;16112382;19;129680;-46
2023/05/15 02:57:59;;;;;;;6.53;4.57;;;;;;;20.13;44.54;101459.75;16115962;19;129834;-39
2023/05/15 03:03:21;;;;;;;5.55;4.30;;;;;;;20.10;44.63;101458.31;16109013;19;128929;-39
2023/05/15 03:08:43;;;;;;;5.35;4.47;;;;;;;20.10;44.56;101458.31;16114750;19;130590;-43
2023/05/15 03:14:05;;;;;;;7.07;4.35;;;;;;;20.11;44.79;101462.78;16115136;19;129723;-40
2023/05/15 03:19:27;;;;;;;7.90;4.30;;;;;;;20.11;44.75;101450.81;16112406;19;130572;-45
2023/05/15 03:24:49;;;;;;;5.78;4.10;;;;;;;20.08;44.76;101452.16;16111050;19;131794;-39
2023/05/15 03:30:11;;;;;;;6.28;3.97;;;;;;;20.08;44.75;101451.31;16106873;19;130743;-38
2023/05/15 03:35:32;;;;;;;5.32;4.20;;;;;;;20.08;44.58;101445.75;16112578;19;130911;-45
2023/05/15 03:40:54;;;;;;;6.50;4.38;;;;;;;20.07;44.44;101446.84;16108995;19;130204;-41
2023/05/15 03:46:16;;;;;;;5.15;4.25;;;;;;;20.07;44.47;101444.06;16106908;19;131847;-40
2023/05/15 03:51:38;;;;;;;5.95;5.10;;;;;;;20.07;44.62;101446.84;16108850;19;131504;-39
2023/05/15 03:57:00;;;;;;;6.53;4.38;;;;;;;20.05;44.49;101447.09;16107354;19;131089;-39
2023/05/15 04:02:22;;;;;;;5.90;4.25;;;;;;;20.04;44.28;101442.63;16117555;19;130686;-38
2023/05/15 04:07:44;;;;;;;5.57;3.88;;;;;;;20.05;44.62;101443.47;16121103;19;130466;-38
2023/05/15 04:13:06;;;;;;;5.28;3.58;;;;;;;20.04;44.58;101444.56;16123714;19;131874;-39
2023/05/15 04:18:28;;;;;;;5.10;3.78;;;;;;;20.05;44.74;101451.81;16123462;19;129867;-41
2023/05/15 04:23:50;;;;;;;4.35;3.92;;;;;;;20.04;44.35;101455.66;16124105;19;130335;-39
2023/05/15 04:29:12;;;;;;;6.18;5.00;;;;;;;20.01;44.43;101450.59;16116391;19;130345;-38
2023/05/15 04:34:34;;;;;;;6.40;5.20;;;;;;;20.01;44.20;101450.59;16122103;19;130976;-38
2023/05/15 04:39:55;;;;;;;6.43;4.70;;;;;;;20.01;44.13;101448.66;16121417;19;129987;-38
2023/05/15 04:45:17;;;;;;;5.97;4.70;;;;;;;19.98;44.23;101447.19;16118075;19;130127;-38
2023/05/15 04:50:39;;;;;;;5.68;4.65;;;;;;;19.98;44.58;101443.56;16121176;19;129614;-42
2023/05/15 04:56:01;;;;;;;8.00;5.18;;;;;;;19.97;44.63;101444.66;16122371;19;130143;-38
2023/05/15 05:01:23;;;;;;;5.38;4.32;;;;;;;19.98;44.71;101463.00;16115288;19;130114;-38
2023/05/15 05:06:48;;;;;;;5.15;4.65;;;;;;;19.96;44.60;101468.78;16120086;19;130090;-37
2023/05/15 05:12:10;;;;;;;6.70;4.70;;;;;;;19.95;44.44;101480.97;16118106;19;131636;-39
2023/05/15 05:17:32;;;;;;;5.95;5.22;;;;;;;19.94;44.09;101484.84;16120415;19;131188;-38
2023/05/15 05:22:54;;;;;;;6.68;5.20;;;;;;;19.94;44.19;101490.41;16117019;19;129538;-38
2023/05/15 05:28:16;;;;;;;5.88;4.10;;;;;;;19.95;44.31;101478.19;16117483;19;131686;-38
2023/05/15 05:33:37;;;;;;;9.65;4.50;;;;;;;19.95;44.48;101480.97;16118341;19;131316;-38
2023/05/15 05:38:59;;;;;;;7.57;5.80;;;;;;;19.95;44.11;101488.47;16112719;19;130529;-41
2023/05/15 05:44:21;;;;;;;8.02;6.78;;;;;;;19.93;44.33;101485.09;16117987;19;129725;-39
2023/05/15 05:49:46;;;;;;;8.00;7.20;;;;;;;19.92;44.09;101489.81;16116075;19;129561;-39
2023/05/15 05:55:09;;;;;;;10.20;6.90;;;;;;;19.91;44.35;101482.56;16117072;19;130515;-38
2023/05/15 06:00:31;;;;;;;8.05;7.20;;;;;;;19.90;43.78;101483.66;16118338;19;130140;-39
2023/05/15 06:05:53;;;;;;;12.32;7.93;;;;;;;19.89;43.76;101473.63;16112822;19;133075;-38
2023/05/15 06:11:15;;;;;;;7.97;6.15;;;;;;;19.88;44.12;101485.81;16114456;19;131041;-42
2023/05/15 06:16:37;;;;;;;9.75;7.70;;;;;;;19.89;43.92;101481.97;16119143;19;131173;-38
2023/05/15 06:21:59;;;;;;;8.77;6.95;;;;;;;19.89;43.58;101481.97;16118105;19;129994;-48
2023/05/15 06:27:24;;;;;;;9.23;7.30;;;;;;;19.89;44.01;101476.41;16119677;19;129363;-38
2023/05/15 06:32:45;;;;;;;9.68;8.07;;;;;;;19.90;43.61;101472.56;16121292;19;131693;-38
2023/05/15 06:38:07;;;;;;;9.55;8.23;;;;;;;19.90;43.37;101472.56;16118731;19;132391;-48
2023/05/15 06:43:29;;;;;;;11.25;8.82;;;;;;;19.90;43.69;101468.91;16119070;19;129788;-39
2023/05/15 06:48:51;;;;;;;9.95;8.90;;;;;;;19.91;43.62;101476.16;16116767;19;129436;-38
2023/05/15 06:54:13;;;;;;;8.57;7.20;;;;;;;19.91;43.33;101474.25;16110337;19;130477;-38
2023/05/15 06:59:35;;;;;;;10.73;7.72;;;;;;;19.92;43.34;101464.81;16112700;19;129495;-38
2023/05/15 07:04:57;;;;;;;8.10;6.28;;;;;;;19.93;43.47;101466.53;16113807;19;129015;-38
2023/05/15 07:10:19;;;;;;;10.68;9.02;;;;;;;19.94;43.58;101473.75;16109651;19;129590;-38
2023/05/15 07:15:41;;;;;;;8.90;7.18;;;;;;;20.01;43.38;101461.72;16114362;19;130086;-38
2023/05/15 07:21:03;;;;;;;10.05;6.32;;;;;;;20.08;43.62;101467.97;16109176;19;134631;-40
2023/05/15 07:26:25;;;;;;;10.88;6.72;;;;;;;20.11;44.01;101468.34;16113190;19;129720;-40
2023/05/15 07:31:56;;;;;;;10.52;6.93;;;;;;;20.18;43.90;101468.22;16107297;19;129538;-41
2023/05/15 07:37:18;;;;;;;10.93;7.60;;;;;;;20.20;43.72;101463.25;16122049;19;133868;-39
2023/05/15 07:42:43;;;;;;;12.75;7.07;;;;;;;20.29;43.85;101459.03;16128687;19;131061;-40
2023/05/15 07:48:15;;;;;;;10.40;7.22;;;;;;;20.34;43.85;101449.09;16128606;19;130493;-38
2023/05/15 07:53:37;;;;;;;11.50;6.88;;;;;;;20.35;43.72;101448.84;16126519;19;130404;-39
2023/05/15 07:58:59;;;;;;;9.85;7.18;;;;;;;20.37;43.97;101443.03;16125675;19;131076;-40
2023/05/15 08:04:21;;;;;;;9.98;7.38;;;;;;;20.39;43.91;101446.41;16124633;19;131779;-39
2023/05/15 08:09:43;;;;;;;13.32;6.82;;;;;;;20.48;43.88;101446.88;16127252;19;130597;-38
2023/05/15 08:15:05;;;;;;;10.30;7.03;;;;;;;20.54;43.53;101443.97;16123863;19;131005;-39
2023/05/15 08:20:27;;;;;;;14.80;7.15;;;;;;;20.56;43.92;101452.88;16121850;19;129695;-40
2023/05/15 08:25:49;;;;;;;7.30;6.32;;;;;;;20.57;44.06;101454.56;16122364;19;130809;-39
2023/05/15 08:31:10;;;;;;;8.35;6.68;;;;;;;20.56;43.85;101452.88;16124761;19;129773;-40
2023/05/15 08:36:32;;;;;;;9.05;7.03;;;;;;;20.63;43.76;101451.91;16125542;19;131802;-39
2023/05/15 08:42:02;;;;;;;10.60;6.65;;;;;;;20.67;43.53;101442.00;16120119;19;129957;-39
2023/05/15 08:47:27;;;;;;;9.32;7.07;;;;;;;20.71;43.86;101448.72;16121614;19;129837;-39
2023/05/15 08:52:50;;;;;;;9.80;6.80;;;;;;;20.72;44.00;101444.84;16120685;19;131637;-40
2023/05/15 08:58:12;;;;;;;9.43;6.45;;;;;;;20.71;43.78;101440.38;16121249;19;130159;-39
2023/05/15 09:03:34;;;;;;;10.80;7.03;;;;;;;20.72;44.05;101444.84;16118196;19;130606;-39
2023/05/15 09:08:57;;;;;;;7.65;6.80;;;;;;;20.72;43.71;101442.06;16122074;19;129377;-39
2023/05/15 09:14:20;;;;;;;10.15;6.95;;;;;;;20.72;43.98;101447.63;16118951;19;129643;-39
2023/05/15 09:19:42;;;;;;;8.52;7.28;;;;;;;20.72;44.12;101455.97;16115701;19;129824;-39
2023/05/15 09:25:05;;;;;;;8.68;7.72;;;;;;;20.72;43.83;101455.97;16119641;19;130857;-40
2023/05/15 09:30:29;;;;;;;10.45;8.82;;;;;;;20.72;43.59;101453.19;16119290;19;131163;-40
2023/05/15 09:35:52;;;;;;;11.27;8.95;;;;;;;20.72;43.58;101453.19;16120086;19;129719;-46
2023/05/15 09:41:13;;;;;;;14.82;8.45;;;;;;;20.72;43.78;101458.75;16116190;19;129937;-47
2023/05/15 09:46:36;;;;;;;14.20;8.90;;;;;;;20.71;44.02;101460.72;16117279;19;130315;-50
2023/05/15 09:51:59;;;;;;;11.30;9.18;;;;;;;20.71;44.00;101465.41;16114536;19;129145;-44
2023/05/15 09:57:22;;;;;;;10.95;8.98;;;;;;;20.68;43.82;101461.19;16117769;19;129299;-49
2023/05/15 10:02:45;;;;;;;13.18;10.13;;;;;;;20.67;43.81;101459.50;16114838;19;130496;-50
2023/05/15 10:08:06;;;;;;;12.35;9.93;;;;;;;20.66;44.10;101457.81;16118182;19;129140;-46
2023/05/15 10:13:30;;;;;;;13.75;10.52;;;;;;;20.65;43.85;101460.84;16114704;19;130750;-46
2023/05/15 10:18:52;;;;;;;13.00;10.35;;;;;;;20.62;43.59;101461.34;16115410;19;130406;-46
2023/05/15 10:24:15;;;;;;;15.90;10.52;;;;;;;20.62;43.76;101456.59;16113600;19;131806;-44
2023/05/15 10:29:37;;;;;;;14.05;11.40;;;;;;;20.60;43.81;101465.22;16111297;19;129591;-42
2023/05/15 10:34:59;;;;;;;19.95;13.43;;;;;;;20.59;43.49;101463.50;16115342;19;130254;-41
2023/05/15 10:40:23;;;;;;;17.70;12.35;;;;;;;20.58;43.88;101461.81;16115565;19;129557;-44
2023/05/15 10:45:46;;;;;;;20.33;13.98;;;;;;;20.55;43.41;101459.56;16114335;19;129655;-41
2023/05/15 10:51:22;;;;;;;23.58;15.70;;;;;;;20.55;43.41;101469.81;16115643;19;129961;-45
2023/05/15 10:56:44;;;;;;;19.52;14.93;;;;;;;20.50;43.44;101465.00;16110790;19;129876;-41
2023/05/15 11:02:28;;;;;;;26.17;17.88;;;;;;;20.49;43.80;101466.09;16114656;19;129788;-43
2023/05/15 11:08:14;;;;;;;21.58;15.02;;;;;;;20.46;43.70;101469.34;16110392;19;129532;-45
2023/05/15 11:14:01;;;;;;;23.65;15.75;;;;;;;20.43;43.58;101458.75;16111356;19;129406;-44
2023/05/15 11:19:53;;;;;;;25.42;16.90;;;;;;;20.38;43.90;101469.75;16112756;19;130165;-42
2023/05/15 11:25:15;;;;;;;27.80;17.05;;;;;;;20.37;43.94;101470.84;16106120;19;130427;-43
2023/05/15 11:30:38;;;;;;;28.83;18.40;;;;;;;20.35;43.62;101479.41;16110219;19;129822;-46
2023/05/15 11:36:04;;;;;;;24.42;17.50;;;;;;;20.34;43.87;101483.28;16110270;19;130463;-45
2023/05/15 11:41:30;;;;;;;30.27;18.63;;;;;;;20.34;43.81;101487.97;16108223;19;130585;-42
2023/05/15 11:46:52;;;;;;;24.90;18.10;;;;;;;20.31;43.73;101483.78;16110300;19;129754;-42
2023/05/15 11:52:15;;;;;;;24.23;16.83;;;;;;;20.32;43.82;101479.03;16109161;19;130628;-42
2023/05/15 11:57:37;;;;;;;27.83;18.60;;;;;;;20.32;43.93;101476.25;16109224;19;129849;-42
2023/05/15 12:02:59;;;;;;;26.50;18.10;;;;;;;20.31;43.63;101477.38;16104853;19;129680;-46
2023/05/15 12:08:21;;;;;;;26.42;18.77;;;;;;;20.29;44.02;101484.03;16110148;19;130686;-41
2023/05/15 12:13:42;;;;;;;29.23;17.67;;;;;;;20.29;43.83;101480.38;16104314;19;132757;-45
2023/05/15 12:19:05;;;;;;;22.98;16.75;;;;;;;20.29;44.14;101474.81;16107333;19;130098;-41
2023/05/15 12:24:27;;;;;;;25.55;17.90;;;;;;;20.28;43.92;101482.34;16115738;19;131097;-44
2023/05/15 12:29:49;;;;;;;26.05;17.75;;;;;;;20.27;44.34;101477.00;16114866;19;130391;-43
2023/05/15 12:35:11;;;;;;;27.60;19.33;;;;;;;20.26;43.94;101490.06;16113265;19;130834;-42
2023/05/15 12:40:35;;;;;;;32.20;19.13;;;;;;;20.24;44.04;101485.84;16118406;19;129691;-41
2023/05/15 12:45:57;;;;;;;31.90;19.00;;;;;;;20.22;44.25;101474.97;16123068;19;131810;-40
2023/05/15 12:51:21;;;;;;;34.08;20.90;;;;;;;20.22;44.07;101479.69;16121487;19;129447;-41
2023/05/15 12:56:43;;;;;;;30.67;19.30;;;;;;;20.19;43.84;101478.22;16123623;19;130211;-42
2023/05/15 13:02:09;;;;;;;25.13;17.85;;;;;;;20.18;44.19;101479.34;16126101;19;130872;-40
2023/05/15 13:07:32;;;;;;;27.48;18.98;;;;;;;20.18;44.46;101489.59;16117616;19;131256;-41
2023/05/15 13:12:55;;;;;;;26.92;18.23;;;;;;;20.16;44.34;101487.06;16123737;19;129005;-42
2023/05/15 13:18:17;;;;;;;23.38;17.67;;;;;;;20.16;44.25;101491.75;16121597;19;129494;-43
2023/05/15 13:23:39;;;;;;;26.55;18.13;;;;;;;20.14;44.37;101478.13;16121091;19;131414;-44
2023/05/15 13:29:01;;;;;;;22.40;16.15;;;;;;;20.13;44.01;101481.97;16119955;19;129447;-40
2023/05/15 13:34:23;;;;;;;21.63;15.85;;;;;;;20.11;44.48;101468.34;16118870;19;130511;-41
2023/05/15 13:39:45;;;;;;;22.35;16.52;;;;;;;20.11;43.98;101486.94;16120595;19;130919;-42
2023/05/15 13:45:10;;;;;;;19.33;14.63;;;;;;;20.07;43.86;101497.69;16115726;19;129409;-39
2023/05/15 13:50:32;;;;;;;24.03;15.47;;;;;;;20.04;44.24;101500.13;16120354;19;131760;-41
2023/05/15 13:55:53;;;;;;;18.95;14.10;;;;;;;20.04;43.98;101516.78;16116516;19;129579;-40
2023/05/15 14:01:15;;;;;;;20.67;12.95;;;;;;;20.01;44.16;101506.13;16114373;19;130863;-40
2023/05/15 14:06:37;;;;;;;17.38;12.18;;;;;;;19.99;43.84;101512.78;16118044;19;129587;-39
2023/05/15 14:11:59;;;;;;;15.30;10.93;;;;;;;19.97;43.65;101514.09;16111955;19;132710;-42
2023/05/15 14:17:22;;;;;;;14.95;10.75;;;;;;;19.95;43.75;101519.88;16113357;19;130063;-39
2023/05/15 14:22:44;;;;;;;16.17;10.63;;;;;;;19.94;43.46;101517.34;16115705;19;134178;-40
2023/05/15 14:28:05;;;;;;;17.13;10.02;;;;;;;19.93;43.81;101524.84;16121458;19;129803;-40
2023/05/15 14:33:27;;;;;;;14.98;9.02;;;;;;;19.90;43.76;101533.63;16122945;19;129741;-42
2023/05/15 14:38:49;;;;;;;16.65;8.65;;;;;;;19.88;43.60;101530.25;16119192;19;129982;-42
2023/05/15 14:44:11;;;;;;;12.45;7.78;;;;;;;19.87;43.41;101539.66;16118373;19;129986;-39
2023/05/15 14:49:34;;;;;;;13.65;7.07;;;;;;;19.86;43.44;101529.63;16117807;19;129850;-39
2023/05/15 14:54:56;;;;;;;11.48;7.03;;;;;;;19.86;43.28;101532.41;16113835;19;130218;-39
2023/05/15 15:00:30;;;;;;;9.77;6.30;;;;;;;19.87;43.22;101539.66;16113217;19;130114;-39
2023/05/15 15:05:52;;;;;;;11.30;6.15;;;;;;;19.88;43.09;101534.97;16109117;19;130798;-40
2023/05/15 15:11:14;;;;;;;15.00;6.18;;;;;;;19.87;42.87;101550.78;16113233;19;130851;-39
2023/05/15 15:16:35;;;;;;;11.45;6.38;;;;;;;19.86;43.11;101548.25;16113521;19;130885;-39
2023/05/15 15:21:57;;;;;;;14.63;8.43;;;;;;;19.88;43.55;101546.91;16112933;19;130466;-38
2023/05/15 15:27:19;;;;;;;14.10;7.43;;;;;;;19.92;43.74;101562.03;16110163;19;131196;-38
2023/05/15 15:32:43;;;;;;;13.88;6.80;;;;;;;19.91;43.41;101563.09;16110564;19;131151;-39
2023/05/15 15:38:05;;;;;;;21.58;6.75;;;;;;;19.93;43.33;101565.63;16112056;19;131319;-38
2023/05/15 15:43:27;;;;;;;28.58;7.07;;;;;;;19.94;43.42;101562.59;16109871;19;129306;-39
2023/05/15 15:48:48;;;;;;;25.65;6.38;;;;;;;19.94;43.68;101568.16;16111421;19;129574;-39
2023/05/15 15:54:10;;;;;;;16.98;5.70;;;;;;;19.94;43.19;101572.88;16108820;19;129779;-39
2023/05/15 15:59:32;;;;;;;20.75;6.60;;;;;;;19.92;43.48;101567.56;16121210;19;129771;-38
2023/05/15 16:04:54;;;;;;;34.92;8.50;;;;;;;19.91;43.98;101571.44;16121655;19;130262;-38
2023/05/15 16:10:16;;;;;;;31.08;9.35;;;;;;;19.92;44.17;101567.56;16120379;19;130599;-38
2023/05/15 16:15:38;;;;;;;22.67;7.78;;;;;;;19.97;45.15;101573.25;16123062;19;129525;-38
2023/05/15 16:21:00;;;;;;;21.13;7.10;;;;;;;20.02;45.75;101574.50;16121299;19;129542;-39
2023/05/15 16:26:22;;;;;;;32.22;7.45;;;;;;;20.02;45.78;101572.53;16119585;19;128987;-38
2023/05/15 16:31:45;;;;;;;24.60;7.43;;;;;;;20.04;46.47;101572.31;16124282;19;130140;-49
2023/05/15 16:37:07;;;;;;;20.85;6.97;;;;;;;20.06;46.15;101572.94;16121949;19;130356;-38
2023/05/15 16:42:34;;;;;;;24.58;6.97;;;;;;;20.08;46.13;101563.28;16123017;19;129376;-39
2023/05/15 16:47:56;;;;;;;21.15;6.65;;;;;;;20.08;46.13;101568.81;16118339;19;131310;-38
2023/05/15 16:53:19;;;;;;;26.02;6.53;;;;;;;20.07;46.46;101578.25;16121874;19;129927;-39
2023/05/15 16:58:41;;;;;;;21.60;6.13;;;;;;;20.07;46.45;101580.16;16122247;19;130662;-38
2023/05/15 17:04:03;;;;;;;20.70;6.82;;;;;;;20.07;46.92;101574.59;16117538;19;130069;-40
2023/05/15 17:09:25;;;;;;;15.40;4.57;;;;;;;20.03;45.65;101582.56;16113089;19;131305;-39
2023/05/15 17:14:47;;;;;;;22.25;5.88;;;;;;;19.95;45.15;101591.22;16117534;19;131590;-38
2023/05/15 17:20:10;;;;;;;19.52;4.35;;;;;;;19.90;45.37;101599.41;16114718;19;130666;-39
2023/05/15 17:25:32;;;;;;;23.50;4.63;;;;;;;19.85;45.09;101594.59;16116577;19;130374;-39
2023/05/15 17:30:54;;;;;;;20.55;4.55;;;;;;;19.82;44.97;101603.38;16114111;19;130814;-38
2023/05/15 17:36:16;;;;;;;15.93;4.50;;;;;;;19.78;44.67;101603.03;16114942;19;130678;-38
2023/05/15 17:41:37;;;;;;;11.35;3.67;;;;;;;19.76;44.74;101615.47;16114382;19;130116;-39
2023/05/15 17:46:59;;;;;;;21.70;4.13;;;;;;;19.73;44.51;101615.94;16118264;19;130136;-39
2023/05/15 17:52:21;;;;;;;21.75;4.47;;;;;;;19.71;44.27;101618.09;16114351;19;129459;-39
2023/05/15 17:57:43;;;;;;;15.27;3.67;;;;;;;19.71;44.06;101612.53;16113455;19;131664;-39
2023/05/15 18:03:05;;;;;;;16.25;4.20;;;;;;;19.71;44.10;101640.28;16111994;19;129649;-39
2023/05/15 18:08:27;;;;;;;27.20;5.05;;;;;;;19.71;43.76;101648.63;16114190;19;129526;-39
2023/05/15 18:13:49;;;;;;;34.38;4.70;;;;;;;19.69;43.74;101648.88;16105942;19;131127;-39
2023/05/15 18:19:11;;;;;;;22.02;4.28;;;;;;;19.68;44.20;101648.03;16098797;19;130881;-41
2023/05/15 18:24:33;;;;;;;21.67;4.20;;;;;;;19.74;43.86;101656.50;16107812;19;130333;-39
2023/05/15 18:29:55;;;;;;;19.60;3.92;;;;;;;19.80;43.93;101658.34;16106352;19;130972;-39
2023/05/15 18:35:17;;;;;;;14.98;3.47;;;;;;;19.94;44.01;101665.34;16109098;19;131467;-38
2023/05/15 18:40:39;;;;;;;18.25;3.83;;;;;;;20.09;43.38;101664.09;16109461;19;131099;-39
2023/05/15 18:46:02;;;;;;;25.02;3.75;;;;;;;20.21;42.82;101672.47;16104739;19;130531;-38
2023/05/15 18:51:24;;;;;;;12.38;2.55;;;;;;;20.41;42.72;101680.47;16103853;19;130491;-40
2023/05/15 18:56:46;;;;;;;11.38;2.80;;;;;;;20.68;41.96;101689.19;16112013;19;130547;-39
2023/05/15 19:02:09;;;;;;;16.33;3.33;;;;;;;20.95;41.67;101694.28;16107523;19;131596;-38
2023/05/15 19:07:31;;;;;;;13.25;2.65;;;;;;;21.15;40.92;101699.44;16111134;19;130455;-39
2023/05/15 19:12:53;;;;;;;8.10;2.30;;;;;;;21.34;40.91;101707.63;16107701;19;130094;-41
2023/05/15 19:18:15;;;;;;;16.30;2.58;;;;;;;21.43;40.33;101711.72;16105443;19;130305;-42
2023/05/15 19:23:37;;;;;;;16.92;2.90;;;;;;;21.47;40.36;101718.47;16105362;19;129991;-39
2023/05/15 19:28:59;;;;;;;12.88;3.30;;;;;;;21.45;40.41;101729.00;16094486;19;131027;-39
2023/05/15 19:34:21;;;;;;;14.18;2.70;;;;;;;21.40;40.07;101731.72;16119318;19;129467;-40
2023/05/15 19:39:42;;;;;;;7.60;2.20;;;;;;;21.35;40.29;101742.72;16125992;19;132363;-40
2023/05/15 19:45:06;;;;;;;8.63;2.15;;;;;;;21.28;39.98;101736.44;16123990;19;133850;-39
2023/05/15 19:50:27;;;;;;;10.13;2.28;;;;;;;21.18;39.93;101749.03;16120242;19;132840;-38
2023/05/15 19:55:51;;;;;;;7.43;2.00;;;;;;;21.10;40.06;101754.97;16129945;19;130849;-40
2023/05/15 20:01:13;;;;;;;8.57;1.85;;;;;;;21.08;40.30;101747.97;16117694;19;129901;-38
2023/05/15 20:06:35;;;;;;;13.05;2.53;;;;;;;21.08;40.10;101765.50;16120703;19;131277;-39
2023/05/15 20:11:57;;;;;;;12.63;2.38;;;;;;;21.08;40.33;101776.63;16120588;19;129582;-43
2023/05/15 20:17:19;;;;;;;13.15;2.17;;;;;;;21.06;40.45;101776.00;16118832;19;129324;-39
2023/05/15 20:22:43;;;;;;;9.65;2.00;;;;;;;21.06;40.32;101779.66;16116319;19;128967;-39
2023/05/15 20:28:05;;;;;;;11.63;2.70;;;;;;;21.09;40.12;101778.31;16111320;19;130229;-42
2023/05/15 20:33:27;;;;;;;8.38;2.13;;;;;;;21.13;40.00;101785.09;16121477;19;129955;-43
2023/05/15 20:38:50;;;;;;;7.38;1.98;;;;;;;21.18;39.60;101782.41;16115036;19;131055;-40
2023/05/15 20:44:12;;;;;;;10.63;1.98;;;;;;;21.20;39.55;101780.25;16120591;19;129412;-44
2023/05/15 20:49:34;;;;;;;10.70;2.67;;;;;;;21.20;39.76;101791.38;16116044;19;130974;-41
2023/05/15 20:54:56;;;;;;;9.23;2.28;;;;;;;21.16;39.46;101786.53;16116631;19;129085;-42
2023/05/15 21:00:18;;;;;;;11.05;2.40;;;;;;;21.11;39.59;101795.63;16114067;19;130092;-42
2023/05/15 21:05:40;;;;;;;8.25;2.45;;;;;;;21.06;39.34;101807.47;16113000;19;129952;-39
2023/05/15 21:11:02;;;;;;;8.55;2.03;;;;;;;21.03;39.87;101807.13;16110831;19;131148;-41
2023/05/15 21:16:23;;;;;;;10.48;2.13;;;;;;;20.99;39.72;101800.34;16112831;19;131017;-46
2023/05/15 21:21:45;;;;;;;9.35;2.35;;;;;;;20.95;39.56;101802.75;16115130;19;129671;-43
2023/05/15 21:27:07;;;;;;;8.68;2.17;;;;;;;20.90;39.75;101808.19;16113850;19;129683;-42
2023/05/15 21:32:29;;;;;;;12.85;2.38;;;;;;;20.86;39.57;101812.56;16113283;19;129763;-42
2023/05/15 21:37:51;;;;;;;7.82;1.95;;;;;;;20.82;39.73;101814.94;16115239;19;131840;-39
2023/05/15 21:43:13;;;;;;;10.35;2.40;;;;;;;20.77;39.70;101819.53;16113449;19;129396;-42
2023/05/15 21:48:35;;;;;;;10.57;2.63;;;;;;;20.69;39.84;101823.47;16114196;19;130426;-42
2023/05/15 21:53:57;;;;;;;9.95;2.65;;;;;;;20.62;39.77;101825.53;16112186;19;130870;-40
2023/05/15 21:59:19;;;;;;;19.02;2.85;;;;;;;20.56;39.57;101828.16;16102917;19;131360;-40
2023/05/15 22:04:41;;;;;;;9.10;2.50;;;;;;;20.50;39.81;101831.91;16093891;19;132467;-42
2023/05/15 22:10:04;;;;;;;11.65;2.90;;;;;;;20.45;39.46;101840.09;16104456;19;134193;-40
2023/05/15 22:15:25;;;;;;;13.95;2.75;;;;;;;20.40;39.94;101832.47;16115247;19;131357;-41
2023/05/15 22:20:47;;;;;;;11.70;2.58;;;;;;;20.35;39.72;101837.03;16117634;19;129193;-41
2023/05/15 22:26:09;;;;;;;13.95;2.90;;;;;;;20.29;39.72;101839.69;16109394;19;130087;-41
2023/05/15 22:31:31;;;;;;;15.43;3.40;;;;;;;20.22;39.64;101838.91;16111455;19;130818;-40
2023/05/15 22:36:54;;;;;;;13.23;2.60;;;;;;;20.19;39.66;101839.38;16111821;19;130325;-40
2023/05/15 22:42:17;;;;;;;14.55;2.90;;;;;;;20.17;39.24;101844.34;16109805;19;130628;-45
2023/05/15 22:47:39;;;;;;;17.13;3.00;;;;;;;20.13;39.34;101848.66;16108569;19;131108;-43
2023/05/15 22:53:01;;;;;;;17.15;2.70;;;;;;;20.12;39.77;101855.31;16104317;19;130421;-41
2023/05/15 22:58:23;;;;;;;13.48;2.70;;;;;;;20.08;39.32;101859.63;16111860;19;131120;-41
2023/05/15 23:03:45;;;;;;;12.95;2.30;;;;;;;20.05;39.18;101857.34;16108196;19;131668;-40
2023/05/15 23:09:08;;;;;;;13.57;2.47;;;;;;;20.02;39.31;101855.00;16104102;19;129677;-40
2023/05/15 23:14:30;;;;;;;12.25;2.25;;;;;;;19.98;39.28;101861.00;16107620;19;130861;-42
2023/05/15 23:19:51;;;;;;;13.13;2.70;;;;;;;19.95;39.33;101869.78;16109040;19;130342;-43
2023/05/15 23:25:13;;;;;;;11.63;2.10;;;;;;;19.94;38.94;101873.63;16104046;19;130262;-40
2023/05/15 23:30:35;;;;;;;10.80;2.30;;;;;;;19.92;39.07;101873.06;16101373;19;130526;-43
2023/05/15 23:35:58;;;;;;;12.98;2.85;;;;;;;19.89;38.87;101870.72;16107756;19;130401;-44
2023/05/15 23:41:21;;;;;;;9.38;2.05;;;;;;;19.87;39.06;101878.44;16103805;19;131071;-45
2023/05/15 23:46:43;;;;;;;11.20;2.33;;;;;;;19.87;39.29;101883.16;16104246;19;130750;-42
2023/05/15 23:52:06;;;;;;;10.50;2.70;;;;;;;19.85;39.29;101880.59;16104671;19;131235;-43
2023/05/15 23:57:28;;;;;;;9.98;2.03;;;;;;;19.83;39.06;101888.31;16106146;19;134370;-40
